Погода Тангвана 2 недели

Рио-де-Жанейро, Бразилия

23 июля-05 августа
  • 23июля
    Сегодня
    +13°
    +26°
    Практически безоблачно
    ВремяПогодаТемператураВлажностьДавлениеВетер, м/сВероятность осадков
    00:00Ясно и безоблачно+16°C98 %757 мм1.5 м/с5 %
    03:00Пасмурно, сплошная облачность+17°C98 %757 мм1.3 м/с5 %
    06:00Облачно с прояснениями+16°C97 %757 мм0.8 м/с6 %
    09:00Практически безоблачно+19°C87 %758 мм1.5 м/с3 %
    12:00Практически безоблачно+24°C63 %758 мм1.3 м/с2 %
    15:00Практически безоблачно+25°C61 %757 мм1.5 м/с5 %
    18:00Ясно и безоблачно+18°C91 %757 мм1.7 м/с5 %
    21:00Ясно и безоблачно+16°C97 %758 мм1.0 м/с5 %
  • 24июля
    Среда
    +14°
    +27°
    Облачно с прояснениями
    ВремяПогодаТемператураВлажностьДавлениеВетер, м/сВероятность осадков
    00:00Ясно и безоблачно+16°C96 %758 мм0.8 м/с4 %
    03:00Ясно и безоблачно+16°C96 %757 мм1.3 м/с4 %
    06:00Практически безоблачно+14°C98 %757 мм1.3 м/с5 %
    09:00Ясно и безоблачно+21°C77 %759 мм1.1 м/с5 %
    12:00Ясно и безоблачно+26°C46 %758 мм1.7 м/с5 %
    15:00Облачно с прояснениями+26°C46 %756 мм2.0 м/с5 %
    18:00Ясно и безоблачно+20°C78 %757 мм2.9 м/с5 %
    21:00Ясно и безоблачно+18°C91 %757 мм3.4 м/с5 %
  • 25июля
    Четверг
    +17°
    +28°
    Ясно и безоблачно
    ВремяПогодаТемператураВлажностьДавлениеВетер, м/сВероятность осадков
    00:00Ясно и безоблачно+18°C96 %757 мм2.9 м/с5 %
    03:00Практически безоблачно+17°C95 %756 мм2.2 м/с5 %
    06:00Ясно и безоблачно+15°C93 %755 мм1.7 м/с5 %
    09:00Ясно и безоблачно+22°C70 %757 мм1.0 м/с5 %
    12:00Ясно и безоблачно+27°C52 %755 мм2.2 м/с5 %
    15:00Ясно и безоблачно+28°C46 %753 мм1.1 м/с5 %
    18:00Ясно и безоблачно+21°C77 %753 мм1.8 м/с5 %
    21:00Ясно и безоблачно+19°C81 %754 мм2.0 м/с5 %
  • 26июля
    Пятница
    +16°
    +30°
    Практически безоблачно
    ВремяПогодаТемператураВлажностьДавлениеВетер, м/сВероятность осадков
    00:00Ясно и безоблачно+18°C84 %753 мм1.9 м/с5 %
    03:00Ясно и безоблачно+18°C78 %753 мм1.0 м/с5 %
    06:00Ясно и безоблачно+18°C68 %753 мм1.0 м/с5 %
    09:00Ясно и безоблачно+25°C57 %754 мм1.2 м/с5 %
    12:00Ясно и безоблачно+29°C37 %754 мм0.7 м/с5 %
    15:00Практически безоблачно+29°C38 %753 мм1.3 м/с5 %
    18:00Небольшая облачность+21°C65 %753 мм2.3 м/с5 %
    21:00Облачно с прояснениями+20°C71 %754 мм2.0 м/с5 %
  • 27июля
    Суббота
    +16°
    +30°
    Облачно с прояснениями
    ВремяПогодаТемператураВлажностьДавлениеВетер, м/сВероятность осадков
    00:00Небольшая облачность+18°C82 %754 мм1.1 м/с5 %
    03:00Облачно с прояснениями+18°C82 %753 мм0.7 м/с5 %
    06:00Небольшая облачность+18°C74 %754 мм0.3 м/с5 %
    09:00Небольшая облачность+24°C63 %755 мм0.2 м/с5 %
    12:00Облачно с прояснениями+29°C46 %754 мм0.6 м/с5 %
    15:00Облачно с прояснениями+29°C44 %753 мм0.7 м/с5 %
    18:00Облачно с прояснениями+22°C76 %754 мм1.7 м/с5 %
    21:00Небольшая облачность+20°C77 %754 мм2.0 м/с5 %
Мы используем cookies
Соглашаюсь